Time;durP1;ratioP1;P1;durP2;ratioP2;P2;SDS_P1;SDS_P2;PMS_P1;PMS_P2;Temp;Humidity;BMP_temperature;BMP_pressure;BME280_temperature;BME280_humidity;BME280_pressure;Samples;Min_cycle;Max_cycle;Signal;HPM_P1;HPM_P2
2024/04/19 00:00:14;;;;;;;6.38;4.38;;;;;;;9.91;100.00;97563.66;5208981;27;20040;-72
2024/04/19 00:02:40;;;;;;;5.13;4.00;;;;;;;9.85;100.00;97535.31;5111640;27;20010;-73
2024/04/19 00:05:08;;;;;;;4.47;3.67;;;;;;;9.85;100.00;97539.78;5090867;27;20387;-73
2024/04/19 00:07:35;;;;;;;6.95;3.83;;;;;;;9.77;100.00;97553.25;5143673;27;20062;-73
2024/04/19 00:10:02;;;;;;;4.00;3.60;;;;;;;9.75;100.00;97566.69;5169774;27;20000;-72
2024/04/19 00:12:31;;;;;;;5.00;3.30;;;;;;;9.77;100.00;97571.78;5182027;27;20000;-73
2024/04/19 00:14:59;;;;;;;3.97;3.65;;;;;;;9.87;100.00;97558.97;5186798;27;20003;-73
2024/04/19 00:17:25;;;;;;;4.18;3.50;;;;;;;9.77;100.00;97563.84;5089872;27;20020;-74
2024/04/19 00:19:52;;;;;;;6.05;4.57;;;;;;;9.78;100.00;97555.69;5116171;27;20124;-73
2024/04/19 00:22:19;;;;;;;9.50;6.93;;;;;;;9.82;100.00;97553.44;5170594;27;20012;-73
2024/04/19 00:24:45;;;;;;;16.73;9.80;;;;;;;9.84;100.00;97572.63;5088707;27;20006;-73
2024/04/19 00:27:12;;;;;;;15.02;9.25;;;;;;;9.84;100.00;97584.03;5053672;28;20006;-76
2024/04/19 00:29:44;;;;;;;20.98;11.65;;;;;;;9.81;100.00;97592.38;5111283;27;20001;-73
2024/04/19 00:32:11;;;;;;;30.73;14.75;;;;;;;9.83;100.00;97603.63;5085074;28;20023;-73
2024/04/19 00:34:37;;;;;;;27.10;15.45;;;;;;;9.81;100.00;97603.00;5058736;28;20001;-73
2024/04/19 00:37:06;;;;;;;25.40;15.65;;;;;;;9.94;100.00;97605.66;5110895;27;20005;-74
2024/04/19 00:39:54;;;;;;;22.63;13.30;;;;;;;9.96;100.00;97624.03;5108320;27;20404;-73
2024/04/19 00:42:20;;;;;;;17.77;9.63;;;;;;;9.86;100.00;97613.81;5235805;27;20011;-73
2024/04/19 00:44:46;;;;;;;11.35;7.22;;;;;;;9.92;100.00;97618.31;5180967;27;20015;-73
2024/04/19 00:47:15;;;;;;;9.82;6.13;;;;;;;9.91;100.00;97576.91;5208285;27;20000;-77
2024/04/19 00:49:43;;;;;;;5.80;4.35;;;;;;;9.93;100.00;97572.19;5241275;27;20003;-76
2024/04/19 00:52:10;;;;;;;5.57;4.13;;;;;;;10.02;100.00;97547.09;5239774;27;20023;-73
2024/04/19 00:54:36;;;;;;;4.07;3.20;;;;;;;9.98;100.00;97523.84;5241036;27;20008;-73
2024/04/19 00:57:03;;;;;;;4.07;2.95;;;;;;;10.00;100.00;97498.78;5241278;27;20075;-73
2024/04/19 00:59:29;;;;;;;4.82;2.97;;;;;;;9.96;100.00;97475.53;5219016;27;20128;-73
2024/04/19 01:01:55;;;;;;;23.42;11.38;;;;;;;9.97;100.00;97454.13;5252232;27;20001;-73
2024/04/19 01:04:23;;;;;;;50.72;23.92;;;;;;;9.95;100.00;97426.16;5252562;27;20008;-73
2024/04/19 01:06:49;;;;;;;22.95;11.10;;;;;;;9.87;100.00;97354.84;5225033;27;20001;-73
2024/04/19 01:09:15;;;;;;;6.97;4.75;;;;;;;9.71;100.00;97281.91;5224958;27;20390;-73
2024/04/19 01:11:42;;;;;;;3.90;3.03;;;;;;;9.60;100.00;97372.63;5219775;27;20010;-72
2024/04/19 01:14:08;;;;;;;2.70;2.50;;;;;;;9.60;100.00;97335.53;5192217;27;20026;-74
2024/04/19 01:16:37;;;;;;;5.00;2.47;;;;;;;9.58;100.00;97340.22;5219614;27;20377;-73
2024/04/19 01:19:07;;;;;;;2.25;2.05;;;;;;;9.64;100.00;97326.13;5304531;26;20029;-73
2024/04/19 01:21:35;;;;;;;2.15;1.90;;;;;;;9.56;100.00;97339.59;5263694;26;20032;-73
2024/04/19 01:24:16;;;;;;;2.45;2.15;;;;;;;9.62;100.00;97324.72;5308697;27;20009;-73
2024/04/19 01:26:42;;;;;;;2.30;2.10;;;;;;;9.57;100.00;97317.41;5271419;27;20051;-72
2024/04/19 01:29:08;;;;;;;2.72;2.53;;;;;;;9.55;100.00;97298.25;5188300;27;20011;-73
2024/04/19 01:31:34;;;;;;;4.13;2.40;;;;;;;9.53;100.00;97296.84;5185650;27;20553;-73
2024/04/19 01:34:00;;;;;;;3.40;2.13;;;;;;;9.53;100.00;97299.50;5157999;27;20010;-73
2024/04/19 01:36:27;;;;;;;2.50;2.30;;;;;;;9.55;100.00;97292.94;5240752;27;20423;-73
2024/04/19 01:38:56;;;;;;;3.00;2.67;;;;;;;9.55;100.00;97295.59;5159433;27;20003;-73
2024/04/19 01:41:23;;;;;;;3.28;2.40;;;;;;;9.48;100.00;97278.91;5158905;27;19999;-73
2024/04/19 01:43:49;;;;;;;2.65;2.45;;;;;;;9.55;100.00;97255.03;5158693;27;20050;-74
2024/04/19 01:46:15;;;;;;;3.15;2.85;;;;;;;9.51;100.00;97253.84;5159363;27;20059;-77
2024/04/19 01:48:41;;;;;;;2.80;2.50;;;;;;;9.51;100.00;97241.41;5241317;27;20003;-73
2024/04/19 01:51:07;;;;;;;2.80;2.60;;;;;;;9.54;100.00;97229.56;5174084;27;20000;-74
2024/04/19 01:53:33;;;;;;;4.28;2.67;;;;;;;9.52;100.00;97228.97;5094324;27;20041;-73
2024/04/19 01:55:58;;;;;;;3.38;2.72;;;;;;;9.49;100.00;97203.72;5116435;27;20007;-73
2024/04/19 01:58:39;;;;;;;3.50;3.00;;;;;;;9.45;100.00;97197.22;5188492;27;20062;-74
2024/04/19 02:01:06;;;;;;;2.97;2.55;;;;;;;9.48;100.00;97202.09;5212783;27;20289;-73
2024/04/19 02:03:33;;;;;;;2.88;2.60;;;;;;;9.49;100.00;97229.38;5207195;26;20001;-73
2024/04/19 02:06:11;;;;;;;2.85;2.65;;;;;;;9.56;100.00;97241.56;5257784;26;20015;-75
2024/04/19 02:08:37;;;;;;;2.90;2.53;;;;;;;9.60;100.00;97216.31;5313986;26;20059;-73
2024/04/19 02:11:03;;;;;;;3.50;3.20;;;;;;;9.65;100.00;97215.66;5288324;26;20037;-73
2024/04/19 02:13:29;;;;;;;4.80;4.35;;;;;;;9.61;100.00;97238.31;5260535;26;20025;-73
2024/04/19 02:15:55;;;;;;;3.75;3.40;;;;;;;9.68;100.00;97239.09;5231650;26;20008;-73
2024/04/19 02:18:22;;;;;;;14.60;8.13;;;;;;;9.59;100.00;97227.94;5314632;26;20419;-74
2024/04/19 02:20:48;;;;;;;16.92;9.23;;;;;;;9.67;100.00;97222.38;5257373;26;20012;-74
2024/04/19 02:23:15;;;;;;;23.52;12.35;;;;;;;9.68;100.00;97223.19;5291898;26;19996;-73
2024/04/19 02:25:41;;;;;;;27.02;13.48;;;;;;;9.68;100.00;97213.41;5321008;26;20012;-73
2024/04/19 02:31:02;;;;;;;25.35;13.35;;;;;;;9.89;100.00;97236.97;5325997;26;20385;-74
2024/04/19 02:33:28;;;;;;;29.88;13.52;;;;;;;9.87;100.00;97254.91;5320616;26;20003;-73
2024/04/19 02:35:55;;;;;;;23.00;11.18;;;;;;;9.97;100.00;97265.06;5321025;26;20323;-73
2024/04/19 02:38:23;;;;;;;15.23;9.57;;;;;;;10.06;100.00;97274.38;5320942;26;20000;-74
2024/04/19 02:40:48;;;;;;;15.45;9.45;;;;;;;10.15;100.00;97279.28;5320865;26;20023;-76
2024/04/19 02:43:14;;;;;;;20.23;11.70;;;;;;;10.19;100.00;97275.16;5314499;26;20044;-73
2024/04/19 02:46:07;;;;;;;19.35;10.95;;;;;;;10.41;100.00;97266.88;5265776;26;20016;-73
2024/04/19 02:48:33;;;;;;;20.55;10.68;;;;;;;10.34;100.00;97266.09;5256658;26;20013;-73
2024/04/19 02:51:01;;;;;;;24.50;12.23;;;;;;;10.38;100.00;97262.00;5312742;26;20067;-73
2024/04/19 02:53:27;;;;;;;20.92;10.55;;;;;;;10.45;100.00;97249.50;5256831;26;20060;-73
2024/04/19 02:55:53;;;;;;;29.13;14.10;;;;;;;10.50;100.00;97225.78;5256377;26;20387;-73
2024/04/19 02:58:18;;;;;;;29.98;14.45;;;;;;;10.49;100.00;97211.69;5285478;26;20005;-73
2024/04/19 03:00:44;;;;;;;29.17;15.32;;;;;;;10.76;100.00;97218.44;5284947;26;20436;-73
2024/04/19 03:03:11;;;;;;;24.35;12.80;;;;;;;10.61;100.00;97209.19;5313407;26;20007;-74
2024/04/19 03:05:37;;;;;;;30.90;13.93;;;;;;;10.51;100.00;97199.03;5285713;26;19997;-73
2024/04/19 03:08:03;;;;;;;24.50;13.57;;;;;;;10.61;100.00;97177.31;5285853;26;19997;-73
2024/04/19 03:10:29;;;;;;;33.63;15.45;;;;;;;10.62;100.00;97166.50;5287022;26;20106;-73
2024/04/19 03:12:55;;;;;;;32.85;16.08;;;;;;;10.64;100.00;97156.44;5316696;26;19996;-73
2024/04/19 03:15:22;;;;;;;39.70;18.02;;;;;;;10.66;100.00;97161.53;5283306;27;20002;-74
2024/04/19 03:17:48;;;;;;;40.20;18.85;;;;;;;10.67;100.00;97155.22;5257287;27;20001;-73
2024/04/19 03:20:14;;;;;;;57.38;26.17;;;;;;;10.70;100.00;97150.25;5199938;27;20002;-73
2024/04/19 03:22:40;;;;;;;53.30;26.23;;;;;;;10.71;100.00;97149.25;5199284;27;19994;-73
2024/04/19 03:25:07;;;;;;;50.25;23.50;;;;;;;10.67;100.00;97128.69;5198802;27;19997;-73
2024/04/19 03:27:33;;;;;;;46.17;23.73;;;;;;;10.74;100.00;97129.41;5254346;27;20121;-73
2024/04/19 03:29:59;;;;;;;46.30;24.35;;;;;;;10.84;100.00;97132.38;5198922;27;20001;-74
2024/04/19 03:32:27;;;;;;;61.65;29.45;;;;;;;10.87;100.00;97129.28;5226744;27;20014;-73
2024/04/19 03:34:53;;;;;;;70.00;31.33;;;;;;;10.85;100.00;97120.72;5198907;27;20013;-73
2024/04/19 03:37:19;;;;;;;67.95;31.63;;;;;;;10.86;100.00;97112.53;5255749;27;20001;-73
2024/04/19 03:39:45;;;;;;;68.75;33.10;;;;;;;10.90;100.00;97102.28;5231288;27;20120;-73
2024/04/19 03:42:12;;;;;;;65.22;31.13;;;;;;;10.96;100.00;97093.44;5231165;27;20056;-73
2024/04/19 03:47:26;;;;;;;75.28;32.90;;;;;;;10.96;100.00;97080.16;5254358;26;20012;-72
2024/04/19 03:49:52;;;;;;;62.53;30.90;;;;;;;11.04;100.00;97050.66;5287205;26;20013;-73
2024/04/19 03:52:19;;;;;;;53.60;25.27;;;;;;;11.05;100.00;97037.16;5316112;26;20335;-75
2024/04/19 03:54:45;;;;;;;61.95;26.83;;;;;;;11.08;100.00;97038.53;5287774;26;19997;-73
2024/04/19 03:57:11;;;;;;;62.90;29.73;;;;;;;11.11;100.00;97073.44;5316744;26;20139;-73
2024/04/19 03:59:38;;;;;;;67.15;33.72;;;;;;;11.16;100.00;97091.38;5235677;26;20052;-73
2024/04/19 04:02:14;;;;;;;47.67;22.10;;;;;;;11.09;100.00;97088.78;5316433;26;20451;-73
2024/04/19 04:04:54;;;;;;;19.13;11.48;;;;;;;10.89;100.00;97088.19;5262115;26;20012;-73
2024/04/19 04:07:21;;;;;;;15.02;8.27;;;;;;;10.81;100.00;97098.31;5315483;26;19997;-74
2024/04/19 04:09:47;;;;;;;11.35;6.93;;;;;;;10.94;100.00;97090.19;5287024;26;20005;-73
2024/04/19 04:12:15;;;;;;;8.20;5.18;;;;;;;10.98;100.00;97080.75;5287119;26;20083;-74
2024/04/19 04:14:43;;;;;;;7.38;5.03;;;;;;;11.14;100.00;97093.41;5290902;26;20067;-74
2024/04/19 04:17:11;;;;;;;8.90;5.57;;;;;;;11.02;100.00;97095.22;5323239;26;19996;-74
2024/04/19 04:19:38;;;;;;;8.68;5.18;;;;;;;11.21;100.00;97087.00;5323684;26;20434;-74
2024/04/19 04:22:04;;;;;;;23.27;7.55;;;;;;;11.00;100.00;97089.28;5381133;26;20438;-74
2024/04/19 04:24:30;;;;;;;8.73;6.20;;;;;;;11.07;100.00;97079.44;5322811;26;20000;-74
2024/04/19 04:26:56;;;;;;;10.90;6.03;;;;;;;11.14;100.00;97074.81;5322459;26;20346;-70
2024/04/19 04:29:27;;;;;;;7.82;5.97;;;;;;;11.20;100.00;97065.97;5322942;26;19996;-73
2024/04/19 04:31:53;;;;;;;8.35;6.18;;;;;;;11.12;100.00;97052.97;5322551;26;20406;-71
2024/04/19 04:34:44;;;;;;;7.20;5.75;;;;;;;11.40;100.00;97062.00;5351461;26;20399;-74
2024/04/19 04:37:10;;;;;;;7.18;5.10;;;;;;;11.44;100.00;97063.19;5322906;26;20074;-76
2024/04/19 04:39:36;;;;;;;21.30;7.60;;;;;;;11.23;100.00;97057.53;5351734;26;20079;-74
2024/04/19 04:42:02;;;;;;;7.00;6.10;;;;;;;11.29;100.00;97053.97;5322820;26;20013;-71
2024/04/19 04:44:32;;;;;;;14.50;6.60;;;;;;;11.42;100.00;97064.44;5280936;27;20001;-70
2024/04/19 04:46:59;;;;;;;9.13;6.10;;;;;;;11.47;100.00;97068.03;5199622;27;19998;-73
2024/04/19 04:49:25;;;;;;;7.63;6.22;;;;;;;11.35;100.00;97067.19;5219405;27;20519;-75
2024/04/19 04:51:51;;;;;;;17.27;8.13;;;;;;;11.11;100.00;97065.47;5219598;27;20038;-72
2024/04/19 04:54:17;;;;;;;28.77;9.27;;;;;;;11.02;100.00;97052.72;5191811;27;20010;-72
2024/04/19 04:56:43;;;;;;;10.27;7.13;;;;;;;11.25;100.00;97058.97;5164912;27;20050;-70
2024/04/19 04:59:08;;;;;;;26.80;8.10;;;;;;;11.33;100.00;97049.88;5192286;27;20014;-71
2024/04/19 05:01:35;;;;;;;9.80;6.95;;;;;;;11.37;100.00;97054.50;5193413;27;20435;-71
2024/04/19 05:04:01;;;;;;;9.80;7.53;;;;;;;11.43;100.00;97045.63;5248812;27;20005;-72
2024/04/19 05:06:27;;;;;;;9.45;7.53;;;;;;;11.45;100.00;97053.38;5165704;27;20026;-73
2024/04/19 05:08:54;;;;;;;13.50;8.63;;;;;;;11.46;100.00;97044.34;5195239;27;20014;-72
2024/04/19 05:11:20;;;;;;;10.77;7.38;;;;;;;11.53;100.00;97047.75;5166651;27;20065;-72
2024/04/19 05:13:46;;;;;;;13.45;7.65;;;;;;;11.60;100.00;97051.91;5246964;27;20317;-73
2024/04/19 05:16:13;;;;;;;9.98;7.90;;;;;;;11.61;100.00;97047.38;5244059;26;20498;-71
2024/04/19 05:18:40;;;;;;;44.13;9.35;;;;;;;11.48;100.00;97047.59;5259357;26;20033;-73
2024/04/19 05:21:08;;;;;;;30.98;7.97;;;;;;;11.54;100.00;97036.88;5257713;26;20012;-72
2024/04/19 05:23:34;;;;;;;8.40;6.50;;;;;;;11.67;100.00;97046.50;5350695;26;20028;-72
2024/04/19 05:26:04;;;;;;;26.08;9.18;;;;;;;11.78;100.00;97046.56;5350608;26;20008;-73
2024/04/19 05:28:32;;;;;;;23.38;9.90;;;;;;;11.65;100.00;97045.94;5322404;26;20023;-72
2024/04/19 05:30:58;;;;;;;21.77;8.35;;;;;;;11.65;100.00;97052.06;5379725;26;20011;-78
2024/04/19 05:33:24;;;;;;;9.48;7.72;;;;;;;11.71;100.00;97035.22;5322321;26;20005;-75
2024/04/19 05:35:50;;;;;;;11.02;7.25;;;;;;;11.90;100.00;97036.75;5286236;26;20000;-74
2024/04/19 05:38:16;;;;;;;11.10;8.10;;;;;;;11.88;100.00;97038.03;5257286;26;20408;-75
2024/04/19 05:40:42;;;;;;;23.83;8.52;;;;;;;11.91;100.00;97024.25;5257854;26;20005;-73
2024/04/19 05:43:09;;;;;;;12.63;8.50;;;;;;;12.01;100.00;97018.38;5258094;26;20004;-74
2024/04/19 05:45:35;;;;;;;13.38;8.23;;;;;;;12.05;100.00;97020.34;5257690;26;19997;-75
2024/04/19 05:48:01;;;;;;;27.88;9.00;;;;;;;12.16;100.00;97022.22;5230396;26;19997;-75
2024/04/19 05:50:30;;;;;;;13.90;7.85;;;;;;;12.22;100.00;97031.94;5286137;26;20063;-76
2024/04/19 05:52:56;;;;;;;10.88;7.10;;;;;;;12.25;100.00;97026.13;5258478;26;19997;-75
2024/04/19 05:55:22;;;;;;;69.43;11.18;;;;;;;12.11;100.00;97010.63;5230103;26;20432;-74
2024/04/19 05:57:48;;;;;;;16.15;8.52;;;;;;;12.23;100.00;97014.09;5257884;26;20007;-73
2024/04/19 06:00:14;;;;;;;28.02;9.68;;;;;;;12.15;100.00;97001.94;5255979;26;20008;-75
2024/04/19 06:02:40;;;;;;;11.35;8.77;;;;;;;12.37;100.00;97010.97;5256545;26;20451;-76
2024/04/19 06:05:08;;;;;;;32.70;11.13;;;;;;;12.40;100.00;97018.50;5284930;26;20015;-74
2024/04/19 06:07:35;;;;;;;55.40;12.90;;;;;;;12.33;100.00;97009.78;5258562;26;20564;-79
2024/04/19 06:10:05;;;;;;;36.35;11.52;;;;;;;12.42;100.00;97004.94;5281837;26;20143;-74
2024/04/19 06:12:33;;;;;;;11.55;8.35;;;;;;;12.64;100.00;97020.06;5286013;26;20169;-73
2024/04/19 06:15:00;;;;;;;33.78;10.13;;;;;;;12.69;100.00;97014.03;5256097;26;20015;-73
2024/04/19 06:17:26;;;;;;;38.45;10.18;;;;;;;12.65;100.00;97005.72;5282712;26;19997;-74
2024/04/19 06:19:52;;;;;;;18.85;10.90;;;;;;;12.63;100.00;97017.63;5256495;26;20189;-75
2024/04/19 06:22:17;;;;;;;16.13;10.38;;;;;;;12.63;100.00;97037.09;5255945;26;20335;-73
2024/04/19 06:24:43;;;;;;;15.70;10.60;;;;;;;12.66;100.00;97025.97;5257094;26;19997;-73
2024/04/19 06:27:09;;;;;;;12.45;9.95;;;;;;;12.78;100.00;97025.94;5229444;26;20486;-73
2024/04/19 06:29:35;;;;;;;14.95;10.80;;;;;;;12.81;100.00;97028.94;5229577;26;19997;-73
2024/04/19 06:32:01;;;;;;;16.13;11.02;;;;;;;12.93;100.00;97031.59;5257156;26;20511;-74
2024/04/19 06:34:30;;;;;;;17.83;12.82;;;;;;;12.89;100.00;97035.75;5257045;26;20044;-73
2024/04/19 06:36:56;;;;;;;16.58;11.10;;;;;;;12.96;100.00;97029.25;5250955;27;19998;-75
2024/04/19 06:39:25;;;;;;;23.10;14.02;;;;;;;12.99;100.00;97039.44;5279100;26;20346;-76
2024/04/19 06:41:57;;;;;;;17.65;11.18;;;;;;;13.11;100.00;97034.94;5218874;27;20014;-76
2024/04/19 06:44:24;;;;;;;22.55;12.10;;;;;;;13.15;100.00;97033.41;5218219;27;19998;-75
2024/04/19 06:46:50;;;;;;;16.55;12.05;;;;;;;13.31;100.00;97022.00;5245906;27;19998;-75
2024/04/19 06:49:16;;;;;;;21.23;12.63;;;;;;;13.66;100.00;97023.66;5243993;27;20038;-76
2024/04/19 06:51:42;;;;;;;17.25;11.90;;;;;;;14.00;100.00;97038.66;5217105;27;20144;-75
2024/04/19 06:54:08;;;;;;;17.73;12.63;;;;;;;14.30;100.00;97029.28;5200485;27;20396;-74
2024/04/19 06:56:36;;;;;;;16.42;10.63;;;;;;;14.53;100.00;97049.66;5146372;27;20005;-74
2024/04/19 06:59:02;;;;;;;15.60;11.85;;;;;;;14.65;100.00;97039.69;5173948;27;20004;-74
2024/04/19 07:01:28;;;;;;;18.13;11.55;;;;;;;14.65;100.00;97018.31;5120608;27;20441;-76
2024/04/19 07:03:55;;;;;;;17.25;11.45;;;;;;;14.69;100.00;97016.75;5114572;27;20586;-73
2024/04/19 07:06:21;;;;;;;15.75;12.13;;;;;;;14.74;100.00;97046.19;5140653;27;20014;-74
2024/04/19 07:08:49;;;;;;;17.27;11.18;;;;;;;14.91;100.00;97015.69;5093184;27;20008;-73
2024/04/19 07:11:17;;;;;;;20.10;11.63;;;;;;;15.13;100.00;97040.56;5088633;27;20004;-72
2024/04/19 07:13:46;;;;;;;22.13;11.40;;;;;;;15.38;100.00;97025.88;5168288;27;20010;-72
2024/04/19 07:16:14;;;;;;;15.52;10.52;;;;;;;15.88;100.00;97026.38;5178424;27;20092;-72
2024/04/19 07:18:45;;;;;;;14.68;10.05;;;;;;;16.45;100.00;97016.69;5179060;27;20116;-73
2024/04/19 07:21:11;;;;;;;12.48;9.15;;;;;;;16.78;100.00;97022.50;5179001;27;20000;-73
2024/04/19 07:23:38;;;;;;;13.82;9.38;;;;;;;17.00;100.00;97026.88;5178948;27;20000;-72
2024/04/19 07:26:06;;;;;;;14.50;9.20;;;;;;;17.33;100.00;97015.75;5207373;27;20373;-73
2024/04/19 07:28:34;;;;;;;14.27;9.20;;;;;;;17.71;100.00;97021.47;5161759;27;20009;-75
2024/04/19 07:31:19;;;;;;;12.07;8.88;;;;;;;17.67;100.00;97011.53;5133897;27;20009;-71
2024/04/19 07:34:00;;;;;;;10.18;7.72;;;;;;;17.65;100.00;97019.06;5137140;27;20353;-71
2024/04/19 07:36:27;;;;;;;13.65;8.75;;;;;;;17.85;100.00;97013.72;5088543;27;20009;-74
2024/04/19 07:38:53;;;;;;;10.20;7.00;;;;;;;18.10;100.00;97024.47;5114487;27;20016;-72
2024/04/19 07:41:21;;;;;;;16.60;9.20;;;;;;;17.80;100.00;97016.41;5109986;27;20005;-70
2024/04/19 07:43:48;;;;;;;12.38;8.80;;;;;;;17.76;100.00;97023.38;5087805;27;20001;-70
2024/04/19 07:46:16;;;;;;;13.13;7.32;;;;;;;17.71;100.00;97015.31;5113472;27;20029;-71
2024/04/19 07:48:44;;;;;;;14.15;7.72;;;;;;;17.51;100.00;97052.84;5111491;27;20434;-71
2024/04/19 07:51:17;;;;;;;8.38;6.43;;;;;;;17.35;100.00;97035.88;5111963;27;20468;-72
2024/04/19 07:53:44;;;;;;;12.70;6.75;;;;;;;17.59;100.00;97012.09;5034013;27;20054;-69
2024/04/19 07:56:10;;;;;;;10.60;6.22;;;;;;;17.70;100.00;97032.47;5143238;27;20013;-74
2024/04/19 07:58:39;;;;;;;9.35;5.75;;;;;;;17.55;100.00;97029.78;5062859;28;20079;-72
2024/04/19 08:01:09;;;;;;;9.15;4.57;;;;;;;17.57;100.00;97030.31;5014355;28;20025;-70
2024/04/19 08:03:36;;;;;;;10.40;6.00;;;;;;;17.23;100.00;97039.84;5068199;27;20019;-71
2024/04/19 08:06:02;;;;;;;12.88;5.00;;;;;;;17.35;100.00;97037.72;5119297;27;20479;-77
2024/04/19 08:08:32;;;;;;;10.15;5.10;;;;;;;17.39;100.00;97109.38;5119376;27;20008;-71
2024/04/19 08:10:59;;;;;;;10.93;3.53;;;;;;;17.38;100.00;97051.44;5120110;27;20066;-72
2024/04/19 08:13:25;;;;;;;7.88;3.17;;;;;;;17.87;100.00;97145.81;5156103;27;20026;-71
2024/04/19 08:15:51;;;;;;;8.60;3.75;;;;;;;18.87;100.00;97132.47;5162228;27;20002;-72
2024/04/19 08:18:18;;;;;;;6.68;2.90;;;;;;;19.02;100.00;97064.41;5162097;27;20008;-71
2024/04/19 08:20:44;;;;;;;7.47;2.83;;;;;;;19.41;100.00;97046.53;5162384;27;20067;-72
2024/04/19 08:23:10;;;;;;;4.40;2.28;;;;;;;19.62;100.00;97051.53;5162311;27;20002;-72
2024/04/19 08:25:37;;;;;;;4.93;1.95;;;;;;;19.83;100.00;97063.78;5217813;27;19999;-71
2024/04/19 08:28:03;;;;;;;3.33;2.03;;;;;;;19.03;100.00;97055.25;5190713;27;20003;-77
2024/04/19 08:30:29;;;;;;;4.53;2.53;;;;;;;19.25;100.00;97048.44;5217858;27;20392;-70
2024/04/19 08:32:58;;;;;;;3.97;1.40;;;;;;;19.36;100.00;97041.16;5246078;26;20004;-71
2024/04/19 08:35:26;;;;;;;5.72;1.27;;;;;;;18.76;100.00;97027.91;5196688;27;20096;-75
2024/04/19 08:37:57;;;;;;;7.43;1.45;;;;;;;18.53;100.00;97033.88;5223112;27;20002;-72
2024/04/19 08:40:24;;;;;;;1.63;1.05;;;;;;;18.88;100.00;97048.03;5221508;27;20002;-74
2024/04/19 08:42:52;;;;;;;1.90;1.10;;;;;;;18.81;100.00;97077.09;5249993;27;20444;-73
2024/04/19 08:45:21;;;;;;;3.17;1.25;;;;;;;18.14;100.00;97077.38;5219734;27;20001;-75
2024/04/19 08:47:49;;;;;;;2.03;1.00;;;;;;;17.70;100.00;97105.75;5222505;27;20029;-76
2024/04/19 08:50:16;;;;;;;2.05;1.33;;;;;;;17.60;100.00;97044.03;5249989;27;20675;-76
2024/04/19 08:52:47;;;;;;;3.20;1.63;;;;;;;17.46;100.00;97071.59;5196512;27;20057;-75
2024/04/19 08:55:15;;;;;;;2.08;1.17;;;;;;;17.98;100.00;97043.53;5250900;27;21077;-75
2024/04/19 08:57:44;;;;;;;1.40;0.90;;;;;;;18.94;100.00;97154.56;5239095;27;20009;-74
2024/04/19 09:00:12;;;;;;;1.88;1.08;;;;;;;19.02;100.00;97070.59;5125427;27;20000;-77
2024/04/19 09:02:41;;;;;;;4.40;0.93;;;;;;;19.15;100.00;97045.81;5126779;27;20010;-77
2024/04/19 09:05:08;;;;;;;33.37;1.90;;;;;;;19.10;100.00;97053.88;5085704;28;20013;-75
2024/04/19 09:07:36;;;;;;;5.65;0.90;;;;;;;18.84;100.00;97084.63;5059986;28;20071;-77
2024/04/19 09:10:02;;;;;;;1.77;1.17;;;;;;;18.99;100.00;97124.94;5090625;27;20013;-72
2024/04/19 09:12:29;;;;;;;1.55;0.77;;;;;;;18.64;100.00;97081.97;5111785;27;20005;-72
2024/04/19 09:14:57;;;;;;;5.97;1.00;;;;;;;18.32;100.00;97094.84;5101847;27;20369;-71
2024/04/19 09:17:31;;;;;;;3.17;1.17;;;;;;;17.82;100.00;97086.75;5050045;28;20011;-74
2024/04/19 09:19:59;;;;;;;3.80;1.10;;;;;;;17.78;100.00;97072.22;5103483;28;20054;-75
2024/04/19 09:22:27;;;;;;;3.88;3.58;;;;;;;18.63;100.00;97076.84;5124054;27;20022;-75
2024/04/19 09:24:54;;;;;;;2.03;1.20;;;;;;;19.31;100.00;97149.63;5079740;27;20089;-72
2024/04/19 09:27:27;;;;;;;0.90;0.82;;;;;;;18.93;100.00;97088.38;5080555;28;20074;-74
2024/04/19 09:29:53;;;;;;;0.80;0.80;;;;;;;18.86;100.00;97060.97;5068569;28;20007;-74
2024/04/19 09:32:30;;;;;;;2.15;0.95;;;;;;;18.57;100.00;97135.22;5063685;28;20521;-74
2024/04/19 09:34:56;;;;;;;2.35;0.88;;;;;;;18.17;100.00;97191.56;5041677;28;20089;-75
2024/04/19 09:37:22;;;;;;;1.02;1.02;;;;;;;18.38;100.00;97134.13;5102943;28;20443;-75
2024/04/19 09:39:50;;;;;;;2.33;1.10;;;;;;;18.38;100.00;97148.38;5050074;28;20231;-73
2024/04/19 09:42:18;;;;;;;5.00;1.40;;;;;;;19.14;100.00;97132.19;5025058;28;20003;-74
2024/04/19 09:44:51;;;;;;;2.92;1.20;;;;;;;19.63;100.00;97130.44;5051095;28;20083;-75
2024/04/19 09:47:21;;;;;;;3.08;0.95;;;;;;;19.37;100.00;97140.47;5029563;28;20014;-74
2024/04/19 09:49:52;;;;;;;1.95;0.60;;;;;;;18.80;100.00;97123.09;5170009;27;20015;-74
2024/04/19 09:52:23;;;;;;;1.75;0.70;;;;;;;18.14;100.00;97098.06;5142085;27;20051;-76
2024/04/19 09:55:11;;;;;;;1.95;0.70;;;;;;;17.57;100.00;97224.38;5173994;27;20008;-75
2024/04/19 09:57:39;;;;;;;4.28;0.93;;;;;;;17.02;100.00;97207.09;5205525;27;20108;-74
2024/04/19 10:00:06;;;;;;;2.13;1.08;;;;;;;16.93;100.00;97161.16;5155453;27;20027;-74
2024/04/19 10:02:39;;;;;;;2.95;0.70;;;;;;;17.05;100.00;97191.28;5165341;27;20007;-73
2024/04/19 10:05:09;;;;;;;2.03;1.80;;;;;;;17.81;100.00;97163.78;5242965;27;20014;-72
2024/04/19 10:07:41;;;;;;;0.80;0.65;;;;;;;17.64;100.00;97194.59;5239895;27;20003;-73
2024/04/19 10:10:14;;;;;;;0.77;0.43;;;;;;;17.94;100.00;97132.97;5206583;27;20479;-74
2024/04/19 10:12:46;;;;;;;2.55;0.70;;;;;;;18.08;100.00;97124.09;5143476;27;20015;-74
2024/04/19 10:15:22;;;;;;;8.15;0.75;;;;;;;18.29;100.00;97168.75;5169851;27;20009;-74
2024/04/19 10:17:49;;;;;;;5.88;4.68;;;;;;;19.48;100.00;97139.34;5169583;27;20595;-74
2024/04/19 10:20:31;;;;;;;0.93;0.60;;;;;;;20.66;90.66;97183.19;5169199;27;20053;-73
2024/04/19 10:22:59;;;;;;;4.25;3.90;;;;;;;21.53;82.46;97147.00;5167949;27;20015;-75
2024/04/19 10:25:26;;;;;;;3.05;0.70;;;;;;;21.35;75.24;97150.47;5168335;27;20039;-73
2024/04/19 10:28:13;;;;;;;1.00;0.50;;;;;;;20.46;79.73;97177.13;5168870;27;20032;-73
2024/04/19 10:30:42;;;;;;;0.80;0.80;;;;;;;19.97;87.70;97148.28;5115384;27;20009;-73
2024/04/19 10:33:09;;;;;;;2.53;0.70;;;;;;;19.68;86.65;97146.56;5143120;27;20016;-74
2024/04/19 10:35:46;;;;;;;1.90;0.30;;;;;;;19.01;92.12;97155.06;5201470;27;20001;-75
2024/04/19 10:38:12;;;;;;;2.38;0.50;;;;;;;18.89;97.50;97148.34;5174121;27;20415;-73
2024/04/19 10:40:39;;;;;;;2.35;2.20;;;;;;;18.84;100.00;97164.47;5229905;27;20003;-70
2024/04/19 10:43:06;;;;;;;1.00;0.57;;;;;;;18.61;100.00;97165.84;5184556;27;20063;-71
2024/04/19 10:45:44;;;;;;;1.80;0.32;;;;;;;18.66;100.00;97203.50;5158104;27;20010;-71
2024/04/19 10:48:20;;;;;;;0.40;0.40;;;;;;;18.00;100.00;97182.91;5266327;27;20013;-71
2024/04/19 10:51:15;;;;;;;0.38;0.38;;;;;;;17.57;100.00;97170.69;5157321;27;20141;-71
2024/04/19 10:56:46;;;;;;;1.63;0.60;;;;;;;17.42;100.00;97162.50;5118082;27;20076;-73
2024/04/19 10:59:14;;;;;;;2.00;0.40;;;;;;;17.40;100.00;97158.50;5206378;27;20004;-70
2024/04/19 11:01:41;;;;;;;1.00;0.63;;;;;;;17.26;100.00;97216.34;5176698;27;20387;-71
2024/04/19 11:04:09;;;;;;;1.65;0.60;;;;;;;17.17;100.00;97180.34;5125174;27;20074;-70
2024/04/19 11:06:40;;;;;;;7.93;0.75;;;;;;;17.12;100.00;97212.50;5125243;27;20008;-73
2024/04/19 11:09:07;;;;;;;4.78;1.38;;;;;;;18.40;100.00;97223.34;5147377;27;20008;-73
2024/04/19 11:11:38;;;;;;;1.05;0.50;;;;;;;18.14;100.00;97208.22;5094331;27;20057;-73
2024/04/19 11:14:08;;;;;;;0.80;0.73;;;;;;;17.85;100.00;97166.75;5135774;27;20021;-72
2024/04/19 11:16:35;;;;;;;1.13;0.80;;;;;;;17.30;100.00;97196.00;5179396;27;20011;-71
2024/04/19 11:19:01;;;;;;;1.35;0.80;;;;;;;16.90;100.00;97180.44;5082216;28;20001;-70
2024/04/19 11:21:27;;;;;;;11.18;0.85;;;;;;;16.45;100.00;97268.50;5056072;28;20353;-66
2024/04/19 11:23:53;;;;;;;4.30;0.80;;;;;;;16.42;100.00;97208.16;5119290;27;20074;-67
2024/04/19 11:26:19;;;;;;;1.70;0.88;;;;;;;16.67;100.00;97256.66;5065539;28;20014;-66
2024/04/19 11:28:47;;;;;;;10.05;0.95;;;;;;;16.75;100.00;97325.88;5103436;28;20017;-68
2024/04/19 11:31:15;;;;;;;5.05;0.82;;;;;;;16.60;100.00;97244.53;5077198;28;20026;-66
2024/04/19 11:33:42;;;;;;;10.48;0.85;;;;;;;16.40;100.00;97196.06;5103843;28;20002;-68